Time;durP1;ratioP1;P1;durP2;ratioP2;P2;SDS_P1;SDS_P2;PMS_P1;PMS_P2;Temp;Humidity;BMP_temperature;BMP_pressure;BME280_temperature;BME280_humidity;BME280_pressure;Samples;Min_cycle;Max_cycle;Signal;HPM_P1;HPM_P2
2023/01/12 00:01:19;;;;;;;1.08;0.90;;;21.00;75.80;;;;;;4881571;29;20207;-79
2023/01/12 00:03:45;;;;;;;2.95;0.80;;;20.90;75.60;;;;;;4883610;29;20814;-80
2023/01/12 00:06:13;;;;;;;1.00;0.70;;;20.90;75.60;;;;;;4881886;29;20219;-79
2023/01/12 00:08:40;;;;;;;2.80;1.35;;;20.80;75.60;;;;;;4883662;29;20734;-80
2023/01/12 00:11:07;;;;;;;1.52;0.80;;;20.80;75.70;;;;;;4880403;29;20820;-79
2023/01/12 00:13:35;;;;;;;1.38;0.80;;;20.80;75.70;;;;;;4884076;29;20206;-79
2023/01/12 00:18:49;;;;;;;1.30;1.00;;;20.90;75.50;;;;;;4884165;29;20219;-79
2023/01/12 00:21:17;;;;;;;1.20;0.90;;;21.00;75.00;;;;;;4883887;29;20229;-79
2023/01/12 00:23:44;;;;;;;1.52;1.00;;;21.10;74.80;;;;;;4881790;29;20215;-79
2023/01/12 00:26:11;;;;;;;2.08;1.35;;;21.10;74.60;;;;;;4884868;29;20583;-78
2023/01/12 00:28:39;;;;;;;1.50;0.93;;;21.10;74.50;;;;;;4882605;29;20203;-80
2023/01/12 00:31:08;;;;;;;1.88;0.90;;;21.10;74.60;;;;;;4879559;29;20230;-81
2023/01/12 00:33:35;;;;;;;1.98;1.00;;;21.00;74.50;;;;;;4879112;29;20746;-80
2023/01/12 00:36:03;;;;;;;1.20;0.90;;;21.00;74.60;;;;;;4883892;29;20329;-80
2023/01/12 00:38:30;;;;;;;1.60;0.85;;;21.00;74.80;;;;;;4882684;29;20213;-79
2023/01/12 00:40:56;;;;;;;2.75;0.82;;;20.90;74.80;;;;;;4882958;29;20210;-80
2023/01/12 00:46:09;;;;;;;1.88;1.00;;;20.90;75.00;;;;;;4876796;29;20209;-79
2023/01/12 00:48:36;;;;;;;2.97;0.90;;;20.80;75.00;;;;;;4881431;29;20207;-79
2023/01/12 00:51:03;;;;;;;1.08;0.98;;;20.80;75.10;;;;;;4880738;29;20226;-79
2023/01/12 00:53:30;;;;;;;1.20;0.80;;;20.70;75.10;;;;;;4882680;29;20252;-79
2023/01/12 00:56:01;;;;;;;1.30;0.90;;;20.70;75.30;;;;;;4883108;29;20690;-79
2023/01/12 00:58:28;;;;;;;1.48;1.05;;;20.80;75.40;;;;;;4881454;29;20218;-80
2023/01/12 01:00:55;;;;;;;1.63;0.73;;;20.90;75.10;;;;;;4881484;29;20574;-79
2023/01/12 01:03:23;;;;;;;2.17;0.90;;;21.00;74.70;;;;;;4882456;29;20239;-80
2023/01/12 01:05:50;;;;;;;1.40;0.90;;;21.00;74.40;;;;;;4880622;29;20210;-79
2023/01/12 01:08:17;;;;;;;1.33;1.00;;;21.00;74.30;;;;;;4883548;29;20218;-79
2023/01/12 01:10:44;;;;;;;2.70;1.30;;;21.00;74.30;;;;;;4881435;29;20229;-79
2023/01/12 01:13:11;;;;;;;1.50;1.40;;;21.00;74.40;;;;;;4880931;29;20253;-79
2023/01/12 01:15:37;;;;;;;1.08;0.80;;;20.90;74.40;;;;;;4878302;29;20693;-80
2023/01/12 01:18:04;;;;;;;1.90;0.85;;;20.90;74.50;;;;;;4882279;29;20201;-80
2023/01/12 01:20:35;;;;;;;1.40;1.00;;;20.90;74.60;;;;;;4882242;29;20211;-80
2023/01/12 01:23:02;;;;;;;1.27;0.80;;;20.80;74.60;;;;;;4881762;29;20214;-79
2023/01/12 01:25:28;;;;;;;1.00;0.85;;;20.80;74.80;;;;;;4879419;29;20284;-80
2023/01/12 01:27:55;;;;;;;1.17;0.90;;;20.70;74.90;;;;;;4881314;29;20232;-81
2023/01/12 01:30:22;;;;;;;1.55;1.13;;;20.70;75.00;;;;;;4879429;29;20228;-81
2023/01/12 01:32:49;;;;;;;1.15;0.90;;;20.70;75.10;;;;;;4881755;29;20713;-80
2023/01/12 01:35:15;;;;;;;2.85;2.45;;;20.70;75.30;;;;;;4880767;29;20202;-80
2023/01/12 01:37:44;;;;;;;1.30;0.80;;;20.60;75.30;;;;;;4881724;29;20214;-79
2023/01/12 01:40:12;;;;;;;1.08;0.90;;;20.60;75.40;;;;;;4879841;29;20209;-80
2023/01/12 01:42:40;;;;;;;1.00;0.70;;;20.60;75.30;;;;;;4881776;29;20225;-79
2023/01/12 01:45:13;;;;;;;1.35;0.80;;;20.80;75.10;;;;;;4879815;29;20433;-79
2023/01/12 01:47:43;;;;;;;2.45;0.82;;;20.90;74.70;;;;;;4882366;29;20571;-78
2023/01/12 01:50:17;;;;;;;1.27;0.90;;;20.90;74.40;;;;;;4879138;29;20240;-79
2023/01/12 01:52:48;;;;;;;1.70;0.88;;;20.90;74.30;;;;;;4877270;29;20248;-80
2023/01/12 01:55:20;;;;;;;1.40;0.90;;;20.90;74.40;;;;;;4879511;29;20207;-78
2023/01/12 01:57:50;;;;;;;1.33;0.80;;;20.90;74.40;;;;;;4879494;29;20216;-79
2023/01/12 02:00:18;;;;;;;1.00;0.80;;;20.90;74.50;;;;;;4879381;29;20221;-79
2023/01/12 02:02:46;;;;;;;1.20;0.82;;;20.80;74.60;;;;;;4880990;29;20206;-78
2023/01/12 02:05:17;;;;;;;1.13;0.68;;;20.70;74.70;;;;;;4879996;29;20203;-80
2023/01/12 02:07:46;;;;;;;1.23;0.80;;;20.70;74.70;;;;;;4874188;29;20269;-78
2023/01/12 02:10:12;;;;;;;1.20;0.80;;;20.70;74.90;;;;;;4878690;29;20261;-78
2023/01/12 02:18:21;;;;;;;0.95;0.70;;;20.60;75.20;;;;;;4874429;29;20612;-78
2023/01/12 02:21:02;;;;;;;3.40;0.85;;;20.50;75.30;;;;;;4880889;29;20669;-78
2023/01/12 02:24:17;;;;;;;1.20;0.73;;;20.50;75.30;;;;;;4881547;29;20228;-79
2023/01/12 02:27:03;;;;;;;1.25;0.70;;;20.40;75.40;;;;;;4880146;29;20207;-78
2023/01/12 02:30:04;;;;;;;1.77;0.95;;;20.40;75.50;;;;;;4881926;29;20566;-79
2023/01/12 02:32:42;;;;;;;1.42;1.10;;;20.40;75.70;;;;;;4880028;29;20207;-79
2023/01/12 02:35:20;;;;;;;1.10;0.80;;;20.60;75.30;;;;;;4880764;29;20217;-79
2023/01/12 02:37:51;;;;;;;1.40;1.00;;;20.70;74.90;;;;;;4879294;29;20217;-79
2023/01/12 02:40:25;;;;;;;4.45;0.90;;;20.80;74.60;;;;;;4880809;29;20203;-79
2023/01/12 02:43:02;;;;;;;1.00;0.70;;;20.80;74.50;;;;;;4879709;29;20213;-79
2023/01/12 02:45:38;;;;;;;1.25;0.80;;;20.80;74.50;;;;;;4879358;29;20700;-79
2023/01/12 02:48:14;;;;;;;1.30;0.70;;;20.70;74.50;;;;;;4880939;29;20684;-80
2023/01/12 02:50:47;;;;;;;1.10;0.70;;;20.70;74.60;;;;;;4882019;29;20251;-81
2023/01/12 02:53:18;;;;;;;1.60;0.82;;;20.60;74.70;;;;;;4884332;29;20218;-81
2023/01/12 02:55:46;;;;;;;1.10;0.90;;;20.60;74.80;;;;;;4882704;29;20226;-79
2023/01/12 02:58:16;;;;;;;1.10;0.60;;;20.60;75.00;;;;;;4881071;29;20214;-79
2023/01/12 03:00:45;;;;;;;1.08;0.80;;;20.60;75.00;;;;;;4881876;29;20201;-80
2023/01/12 03:03:14;;;;;;;1.85;0.95;;;20.50;75.10;;;;;;4883625;29;20204;-80
2023/01/12 03:05:42;;;;;;;2.22;1.00;;;20.50;75.20;;;;;;4885225;29;20202;-79
2023/01/12 03:08:11;;;;;;;1.95;0.82;;;20.40;75.20;;;;;;4881667;29;20203;-80
2023/01/12 03:10:52;;;;;;;1.40;0.90;;;20.40;75.40;;;;;;4880246;29;20226;-80
2023/01/12 03:13:22;;;;;;;1.30;0.90;;;20.40;75.50;;;;;;4883618;29;20219;-79
2023/01/12 03:15:52;;;;;;;1.27;0.95;;;20.40;75.60;;;;;;4881662;29;20218;-81
2023/01/12 03:18:28;;;;;;;0.98;0.70;;;20.40;75.70;;;;;;4884413;29;20594;-81
2023/01/12 03:20:59;;;;;;;1.30;0.85;;;20.40;75.80;;;;;;4883419;29;20272;-80
2023/01/12 03:23:34;;;;;;;1.33;1.13;;;20.50;75.50;;;;;;4882332;29;20245;-81
2023/01/12 03:26:02;;;;;;;1.35;0.80;;;20.60;75.00;;;;;;4884138;29;20205;-80
2023/01/12 03:28:34;;;;;;;1.00;0.70;;;20.70;74.80;;;;;;4883510;29;20555;-77
2023/01/12 03:31:06;;;;;;;1.30;1.00;;;20.70;74.60;;;;;;4876940;29;20315;-80
2023/01/12 03:33:35;;;;;;;1.58;1.02;;;20.70;74.60;;;;;;4882755;29;20204;-80
2023/01/12 03:36:07;;;;;;;1.05;0.70;;;20.70;74.70;;;;;;4881145;29;20222;-80
2023/01/12 03:38:39;;;;;;;1.20;0.88;;;20.60;74.70;;;;;;4883338;29;20673;-78
2023/01/12 03:41:11;;;;;;;1.30;0.90;;;20.60;74.80;;;;;;4877648;29;20206;-79
2023/01/12 03:43:42;;;;;;;0.90;0.73;;;20.50;74.90;;;;;;4883588;29;20217;-79
2023/01/12 03:46:14;;;;;;;1.48;0.82;;;20.50;75.00;;;;;;4880623;29;21290;-81
2023/01/12 03:48:48;;;;;;;1.10;0.90;;;20.40;75.10;;;;;;4878828;29;20211;-81
2023/01/12 03:51:19;;;;;;;0.90;0.68;;;20.40;75.20;;;;;;4882028;29;21969;-80
2023/01/12 03:53:49;;;;;;;1.00;0.82;;;20.40;75.20;;;;;;4882625;29;20217;-80
2023/01/12 03:56:18;;;;;;;1.40;0.80;;;20.40;75.40;;;;;;4882792;29;20230;-81
2023/01/12 03:58:45;;;;;;;1.20;0.90;;;20.30;75.50;;;;;;4878845;29;20674;-80
2023/01/12 04:01:12;;;;;;;1.73;0.80;;;20.30;75.60;;;;;;4878934;29;20203;-80
2023/01/12 04:03:39;;;;;;;1.10;0.70;;;20.30;75.70;;;;;;4879316;29;20219;-80
2023/01/12 04:06:08;;;;;;;1.27;0.90;;;20.30;75.70;;;;;;4884398;29;20228;-80
2023/01/12 04:08:35;;;;;;;1.40;0.93;;;20.20;75.80;;;;;;4877479;29;20209;-81
2023/01/12 04:12:08;;;;;;;0.90;0.65;;;20.40;75.80;;;;;;4882214;29;20586;-80
2023/01/12 04:13:50;;;;;;;0.90;0.70;;;20.50;75.30;;;;;;4881167;29;20206;-80
2023/01/12 04:16:17;;;;;;;0.88;0.70;;;20.60;74.90;;;;;;4879155;29;20639;-80
2023/01/12 04:18:44;;;;;;;1.45;0.70;;;20.60;74.70;;;;;;4880626;29;20202;-80
2023/01/12 04:23:52;;;;;;;0.80;0.63;;;20.60;74.80;;;;;;4881026;29;20346;-80
2023/01/12 04:26:19;;;;;;;1.10;0.80;;;20.50;74.80;;;;;;4882310;29;20211;-81
2023/01/12 04:28:46;;;;;;;1.13;0.75;;;20.50;75.00;;;;;;4880864;29;20666;-80
2023/01/12 04:31:13;;;;;;;0.95;0.80;;;20.50;75.00;;;;;;4877564;29;20233;-80
2023/01/12 04:33:39;;;;;;;1.42;0.80;;;20.40;75.10;;;;;;4877310;29;20220;-80
2023/01/12 04:36:09;;;;;;;1.20;0.82;;;20.40;75.10;;;;;;4881839;29;20217;-81
2023/01/12 04:38:38;;;;;;;1.10;0.70;;;20.40;75.20;;;;;;4880327;29;20218;-80
2023/01/12 04:41:05;;;;;;;1.50;0.90;;;20.30;75.30;;;;;;4881113;29;20202;-80
2023/01/12 04:43:32;;;;;;;1.05;0.70;;;20.30;75.40;;;;;;4879744;29;20658;-80
2023/01/12 04:45:59;;;;;;;1.00;0.77;;;20.20;75.40;;;;;;4881843;29;20202;-80
2023/01/12 04:48:25;;;;;;;1.27;0.80;;;20.20;75.60;;;;;;4878009;29;20206;-80
2023/01/12 04:50:53;;;;;;;2.22;0.80;;;20.20;75.70;;;;;;4882739;29;20232;-83
2023/01/12 04:53:20;;;;;;;1.20;0.82;;;20.20;75.80;;;;;;4881214;29;20709;-81
2023/01/12 04:55:48;;;;;;;1.30;0.80;;;20.20;75.80;;;;;;4882001;29;20289;-81
2023/01/12 04:58:15;;;;;;;1.17;0.70;;;20.20;75.90;;;;;;4883119;29;20215;-81
2023/01/12 05:00:42;;;;;;;1.17;0.80;;;20.30;75.70;;;;;;4876069;29;20559;-81
2023/01/12 05:03:11;;;;;;;1.00;0.80;;;20.40;75.20;;;;;;4881509;29;20734;-81
2023/01/12 05:05:38;;;;;;;1.73;0.75;;;20.50;75.00;;;;;;4882556;29;20695;-82
2023/01/12 05:10:53;;;;;;;1.10;0.60;;;20.50;74.80;;;;;;4881760;29;20329;-81
2023/01/12 05:13:21;;;;;;;1.15;0.70;;;20.50;74.80;;;;;;4884194;29;20198;-82
2023/01/12 05:15:47;;;;;;;1.00;0.70;;;20.40;74.80;;;;;;4878485;29;20210;-81
2023/01/12 05:18:14;;;;;;;1.10;0.85;;;20.40;75.00;;;;;;4880720;29;20594;-82
2023/01/12 05:20:41;;;;;;;1.30;0.80;;;20.40;75.10;;;;;;4881800;29;20210;-81
2023/01/12 05:23:08;;;;;;;0.90;0.80;;;20.30;75.10;;;;;;4881557;29;20669;-81
2023/01/12 05:25:35;;;;;;;1.00;0.70;;;20.30;75.20;;;;;;4881614;29;20215;-80
2023/01/12 05:28:03;;;;;;;1.00;0.80;;;20.30;75.40;;;;;;4880774;29;20215;-80
2023/01/12 05:30:30;;;;;;;0.90;0.60;;;20.20;75.30;;;;;;4880020;29;20733;-81
2023/01/12 05:32:57;;;;;;;1.20;0.70;;;20.20;75.50;;;;;;4881784;29;20226;-81
2023/01/12 05:35:24;;;;;;;0.93;0.80;;;20.20;76.00;;;;;;4877388;29;20234;-80
2023/01/12 05:37:50;;;;;;;1.10;0.80;;;20.10;75.60;;;;;;4880051;29;20210;-80
2023/01/12 05:40:17;;;;;;;1.40;0.80;;;20.10;75.70;;;;;;4882002;29;20206;-82
2023/01/12 05:45:30;;;;;;;1.30;0.77;;;20.20;75.70;;;;;;4877792;29;20738;-80
2023/01/12 05:47:57;;;;;;;1.70;0.90;;;20.40;75.40;;;;;;4877600;29;20273;-82
2023/01/12 05:50:24;;;;;;;1.85;0.80;;;20.40;75.10;;;;;;4877749;29;20239;-81
2023/01/12 05:52:51;;;;;;;1.40;0.95;;;20.40;74.80;;;;;;4882080;29;20236;-81
2023/01/12 05:55:18;;;;;;;1.02;0.85;;;20.40;74.80;;;;;;4878033;29;20647;-80
2023/01/12 05:57:46;;;;;;;1.10;0.73;;;20.40;74.80;;;;;;4879217;29;20206;-80
2023/01/12 06:00:14;;;;;;;1.10;0.75;;;20.40;74.90;;;;;;4880275;29;20207;-80
2023/01/12 06:02:42;;;;;;;1.10;0.80;;;20.40;75.00;;;;;;4876739;29;20206;-81
2023/01/12 06:05:09;;;;;;;1.90;0.80;;;20.30;75.00;;;;;;4880246;29;20218;-80
2023/01/12 06:07:37;;;;;;;2.13;0.80;;;20.30;75.00;;;;;;4880803;29;20210;-81
2023/01/12 06:10:04;;;;;;;1.17;0.90;;;20.30;75.20;;;;;;4879971;29;20202;-80
2023/01/12 06:15:12;;;;;;;1.60;0.90;;;20.20;75.40;;;;;;4869913;29;20714;-80
2023/01/12 06:17:39;;;;;;;1.00;0.60;;;20.10;75.40;;;;;;4877387;29;20692;-80
2023/01/12 06:20:09;;;;;;;1.45;1.08;;;20.10;75.60;;;;;;4879437;29;20214;-80
2023/01/12 06:22:36;;;;;;;1.08;0.60;;;20.00;75.60;;;;;;4875730;29;20712;-80
2023/01/12 06:25:02;;;;;;;2.10;0.73;;;20.00;75.80;;;;;;4880798;29;20204;-81
2023/01/12 06:27:34;;;;;;;1.17;0.70;;;20.00;75.90;;;;;;4880114;29;20206;-81
2023/01/12 06:30:01;;;;;;;1.60;1.25;;;20.00;76.10;;;;;;4879071;29;20731;-80
2023/01/12 06:32:28;;;;;;;0.98;0.70;;;19.90;76.10;;;;;;4872515;29;20695;-82
2023/01/12 06:34:57;;;;;;;1.10;0.90;;;19.90;76.40;;;;;;4878976;29;20213;-81
2023/01/12 06:37:25;;;;;;;1.00;0.80;;;19.90;76.40;;;;;;4880148;29;21898;-82
2023/01/12 06:39:52;;;;;;;1.20;0.70;;;20.10;76.30;;;;;;4880194;29;20233;-81
2023/01/12 06:42:32;;;;;;;0.98;0.65;;;20.30;75.30;;;;;;4878961;29;20206;-81
2023/01/12 06:45:02;;;;;;;1.38;0.82;;;20.50;74.40;;;;;;4877814;29;20579;-81
2023/01/12 06:47:29;;;;;;;1.10;0.77;;;20.80;73.60;;;;;;4878098;29;20306;-78
2023/01/12 06:49:56;;;;;;;0.90;0.70;;;21.00;73.20;;;;;;4879144;29;20701;-81
2023/01/12 06:52:27;;;;;;;1.38;0.77;;;21.10;72.80;;;;;;4878141;29;20242;-81
2023/01/12 06:54:54;;;;;;;1.00;0.63;;;21.30;72.00;;;;;;4879987;29;21256;-82
2023/01/12 06:57:20;;;;;;;1.60;1.00;;;21.40;71.70;;;;;;4878553;29;20207;-81
2023/01/12 06:59:47;;;;;;;1.00;0.60;;;21.50;71.50;;;;;;4880424;29;20210;-81
2023/01/12 07:02:16;;;;;;;0.90;0.70;;;21.70;71.00;;;;;;4877048;29;20199;-80
2023/01/12 07:04:42;;;;;;;0.80;0.60;;;21.70;70.60;;;;;;4881939;29;20215;-81
2023/01/12 07:07:10;;;;;;;1.00;0.73;;;21.80;70.70;;;;;;4880326;29;20625;-80
2023/01/12 07:09:38;;;;;;;1.00;0.70;;;21.80;70.60;;;;;;4881483;29;20663;-80
2023/01/12 07:12:05;;;;;;;1.38;0.80;;;21.90;70.10;;;;;;4879334;29;20617;-80
2023/01/12 07:14:32;;;;;;;1.10;0.70;;;21.90;69.90;;;;;;4878972;29;20206;-81
2023/01/12 07:16:59;;;;;;;0.90;0.80;;;21.80;70.90;;;;;;4878071;29;20290;-81
2023/01/12 07:19:26;;;;;;;1.05;0.70;;;21.80;70.30;;;;;;4880872;29;20206;-81
2023/01/12 07:21:52;;;;;;;0.80;0.70;;;21.70;70.40;;;;;;4881191;29;20568;-81
2023/01/12 07:24:20;;;;;;;1.20;0.70;;;21.70;70.70;;;;;;4879541;29;20211;-81
2023/01/12 07:26:49;;;;;;;1.20;0.80;;;21.70;70.90;;;;;;4879136;29;20204;-81
2023/01/12 07:29:16;;;;;;;1.00;0.85;;;21.80;70.50;;;;;;4883845;29;20216;-81
2023/01/12 07:31:44;;;;;;;1.65;0.90;;;22.00;70.20;;;;;;4882632;29;20216;-81
2023/01/12 07:34:11;;;;;;;1.20;1.00;;;22.00;69.70;;;;;;4879645;29;20690;-81
2023/01/12 07:36:38;;;;;;;1.20;0.60;;;22.00;69.80;;;;;;4883797;29;20211;-81
2023/01/12 07:39:05;;;;;;;1.33;0.70;;;21.90;69.80;;;;;;4881754;29;20247;-81
2023/01/12 07:44:17;;;;;;;1.00;0.70;;;21.80;70.10;;;;;;4880511;29;20265;-81
2023/01/12 07:46:44;;;;;;;0.90;0.70;;;21.90;71.10;;;;;;4876666;29;20206;-82
2023/01/12 07:49:10;;;;;;;0.88;0.63;;;22.00;70.20;;;;;;4885357;29;20729;-82
2023/01/12 07:51:38;;;;;;;1.00;0.70;;;22.00;69.70;;;;;;4879975;29;20212;-82
2023/01/12 07:54:05;;;;;;;1.77;0.90;;;22.10;69.60;;;;;;4880693;29;20211;-81
2023/01/12 07:56:32;;;;;;;1.00;0.70;;;22.00;69.60;;;;;;4881070;29;20291;-82
2023/01/12 07:58:59;;;;;;;1.00;0.70;;;22.00;69.70;;;;;;4880838;29;20666;-81
2023/01/12 08:01:27;;;;;;;0.80;0.60;;;21.90;69.80;;;;;;4882100;29;20206;-81
2023/01/12 08:03:54;;;;;;;1.05;0.73;;;21.80;70.00;;;;;;4882104;29;20211;-81
2023/01/12 08:06:21;;;;;;;1.00;0.73;;;21.80;70.20;;;;;;4882009;29;20222;-81
2023/01/12 08:08:47;;;;;;;1.00;0.80;;;21.90;70.20;;;;;;4883296;29;20219;-81
2023/01/12 08:11:14;;;;;;;1.40;0.90;;;21.90;69.90;;;;;;4883920;29;20271;-80
2023/01/12 08:13:41;;;;;;;0.90;0.70;;;22.00;69.70;;;;;;4876939;29;20242;-81
2023/01/12 08:16:13;;;;;;;1.75;0.80;;;22.00;69.60;;;;;;4878837;29;20212;-80
2023/01/12 08:18:46;;;;;;;0.80;0.60;;;22.00;69.60;;;;;;4881386;29;20718;-80
2023/01/12 08:21:17;;;;;;;0.90;0.60;;;22.00;69.80;;;;;;4877992;29;20207;-80
2023/01/12 08:23:49;;;;;;;0.90;0.65;;;21.90;69.90;;;;;;4880724;29;20244;-81
2023/01/12 08:26:19;;;;;;;0.95;0.60;;;22.00;70.20;;;;;;4882851;29;20210;-80
2023/01/12 08:28:50;;;;;;;1.20;0.80;;;21.90;69.90;;;;;;4881335;29;20575;-80
2023/01/12 08:31:18;;;;;;;1.20;1.00;;;22.00;69.90;;;;;;4881891;29;20213;-81
2023/01/12 08:33:46;;;;;;;4.03;0.80;;;22.10;69.70;;;;;;4879736;29;20222;-81
2023/01/12 08:36:16;;;;;;;0.90;0.70;;;22.10;69.50;;;;;;4881336;29;20211;-81
2023/01/12 08:38:43;;;;;;;1.00;0.60;;;22.20;69.40;;;;;;4882532;29;20618;-81
2023/01/12 08:44:04;;;;;;;1.15;0.70;;;22.20;69.10;;;;;;4882282;29;20206;-81
2023/01/12 08:46:33;;;;;;;0.90;0.70;;;22.20;69.10;;;;;;4882369;29;20686;-81
2023/01/12 08:49:01;;;;;;;1.60;0.80;;;22.20;69.30;;;;;;4880055;29;20231;-80
2023/01/12 08:51:28;;;;;;;0.80;0.60;;;22.10;69.30;;;;;;4879443;29;20671;-79
2023/01/12 08:53:55;;;;;;;0.90;0.70;;;22.10;69.30;;;;;;4883370;29;20234;-80
2023/01/12 08:56:22;;;;;;;0.90;0.70;;;22.10;70.00;;;;;;4880738;29;20961;-77
2023/01/12 08:58:49;;;;;;;0.88;0.60;;;22.10;70.20;;;;;;4881078;29;20697;-79
2023/01/12 09:01:18;;;;;;;0.80;0.60;;;22.00;70.30;;;;;;4880598;29;20208;-79
2023/01/12 09:03:46;;;;;;;0.90;0.63;;;22.00;70.10;;;;;;4880971;29;20298;-78
2023/01/12 09:06:16;;;;;;;1.00;0.70;;;22.00;69.90;;;;;;4880771;29;20211;-81
2023/01/12 09:08:43;;;;;;;5.00;1.00;;;22.00;70.00;;;;;;4883199;29;20670;-79
2023/01/12 09:11:11;;;;;;;3.88;0.70;;;22.00;70.60;;;;;;4882295;29;20215;-79
2023/01/12 09:13:38;;;;;;;2.70;0.80;;;22.10;70.80;;;;;;4883232;29;20233;-76
2023/01/12 09:16:07;;;;;;;0.80;0.60;;;22.10;71.50;;;;;;4881346;29;20462;-79
2023/01/12 09:18:34;;;;;;;2.80;0.80;;;22.10;71.70;;;;;;4878064;29;20204;-80
2023/01/12 09:21:03;;;;;;;1.00;0.68;;;22.00;71.50;;;;;;4880015;29;20230;-79
2023/01/12 09:23:31;;;;;;;3.20;0.70;;;22.10;71.50;;;;;;4881594;29;20221;-79
2023/01/12 09:26:03;;;;;;;3.13;0.82;;;22.00;71.70;;;;;;4879423;29;20204;-78
2023/01/12 09:28:30;;;;;;;1.20;0.70;;;22.00;71.70;;;;;;4880723;29;20207;-78
2023/01/12 09:31:01;;;;;;;1.20;0.90;;;22.00;71.50;;;;;;4879356;29;20677;-79
2023/01/12 09:33:28;;;;;;;6.15;0.80;;;22.00;71.70;;;;;;4880791;29;20607;-79
2023/01/12 09:35:59;;;;;;;2.28;0.80;;;22.00;71.70;;;;;;4881500;29;20211;-80
2023/01/12 09:38:34;;;;;;;1.10;0.70;;;22.00;71.50;;;;;;4880011;29;20730;-78
2023/01/12 09:41:09;;;;;;;0.90;0.70;;;22.00;71.40;;;;;;4880241;29;20210;-78
2023/01/12 09:49:12;;;;;;;2.63;0.80;;;22.00;70.90;;;;;;4878930;29;20238;-78
2023/01/12 09:51:45;;;;;;;0.90;0.63;;;22.00;70.80;;;;;;4876731;29;20291;-77
2023/01/12 09:54:13;;;;;;;2.45;0.80;;;22.00;71.00;;;;;;4877365;29;20500;-77
2023/01/12 09:56:50;;;;;;;1.95;0.93;;;22.00;71.10;;;;;;4878405;29;20686;-77
2023/01/12 09:59:38;;;;;;;1.97;0.80;;;21.90;71.10;;;;;;4879791;29;20207;-77
2023/01/12 10:02:09;;;;;;;1.02;0.70;;;21.90;71.20;;;;;;4875304;29;20486;-77
2023/01/12 10:04:37;;;;;;;1.52;0.70;;;21.80;71.10;;;;;;4880797;29;20215;-77
2023/01/12 10:07:03;;;;;;;2.03;0.70;;;21.80;71.10;;;;;;4881330;29;20215;-77
2023/01/12 10:09:33;;;;;;;1.60;1.00;;;21.80;71.10;;;;;;4879210;29;20474;-76
2023/01/12 10:12:11;;;;;;;1.80;1.38;;;21.80;70.90;;;;;;4879444;29;20214;-76
2023/01/12 10:15:01;;;;;;;1.45;0.90;;;21.80;70.50;;;;;;4878759;29;20245;-76
2023/01/12 10:17:36;;;;;;;1.10;0.80;;;21.80;70.60;;;;;;4875299;29;20689;-77
2023/01/12 10:20:15;;;;;;;1.00;0.70;;;21.70;70.50;;;;;;4872152;29;20475;-75
2023/01/12 10:22:45;;;;;;;0.90;0.63;;;21.70;70.70;;;;;;4878290;29;20714;-74
2023/01/12 10:25:21;;;;;;;1.17;0.90;;;21.70;70.90;;;;;;4880036;29;20478;-75
2023/01/12 10:27:49;;;;;;;1.05;0.70;;;21.60;70.90;;;;;;4881643;29;20690;-75
2023/01/12 10:30:18;;;;;;;1.48;0.80;;;21.50;71.00;;;;;;4875709;29;20725;-75
2023/01/12 10:32:45;;;;;;;1.38;0.80;;;21.50;71.10;;;;;;4875713;29;20851;-74
2023/01/12 10:35:15;;;;;;;1.20;0.80;;;21.40;71.30;;;;;;4876756;29;20206;-75
2023/01/12 10:37:47;;;;;;;3.28;1.08;;;21.40;71.30;;;;;;4879734;29;20282;-76
2023/01/12 10:40:26;;;;;;;0.90;0.60;;;21.50;71.30;;;;;;4880930;29;20206;-75
2023/01/12 10:45:43;;;;;;;1.33;0.60;;;21.60;70.70;;;;;;4877650;29;20322;-75
2023/01/12 10:48:20;;;;;;;0.90;0.60;;;21.70;70.30;;;;;;4877899;29;20210;-76
2023/01/12 10:50:57;;;;;;;1.30;0.65;;;21.80;69.90;;;;;;4879176;29;22110;-74
2023/01/12 10:53:30;;;;;;;0.95;0.77;;;21.90;69.80;;;;;;4879133;29;20245;-75
2023/01/12 10:56:01;;;;;;;1.50;0.80;;;22.00;69.80;;;;;;4877400;29;20315;-79
2023/01/12 10:58:31;;;;;;;6.65;1.10;;;22.10;69.80;;;;;;4872127;29;20238;-86
2023/01/12 11:00:59;;;;;;;1.80;1.00;;;22.20;69.60;;;;;;4875403;29;20214;-86
2023/01/12 11:03:31;;;;;;;1.20;0.80;;;22.30;69.20;;;;;;4880701;29;20207;-87
2023/01/12 11:06:23;;;;;;;3.85;0.80;;;22.50;69.00;;;;;;4884127;29;20214;-86
2023/01/12 11:08:50;;;;;;;1.10;0.70;;;22.70;68.50;;;;;;4879114;29;20678;-87
2023/01/12 11:11:24;;;;;;;1.05;0.70;;;22.80;68.10;;;;;;4883453;29;20218;-86
2023/01/12 11:13:53;;;;;;;1.15;0.80;;;23.00;67.90;;;;;;4881788;29;20698;-86
2023/01/12 11:16:23;;;;;;;1.27;0.80;;;23.00;67.60;;;;;;4881727;29;20219;-85
2023/01/12 11:18:58;;;;;;;2.40;0.75;;;23.00;67.80;;;;;;4882859;29;20212;-86
2023/01/12 11:21:29;;;;;;;1.00;0.70;;;22.90;68.10;;;;;;4881795;29;20221;-84
2023/01/12 11:24:02;;;;;;;2.50;1.00;;;22.90;68.30;;;;;;4882809;29;20229;-86
2023/01/12 11:26:36;;;;;;;1.23;0.80;;;22.90;68.50;;;;;;4883422;29;20481;-85
2023/01/12 11:29:29;;;;;;;1.30;0.80;;;22.90;68.70;;;;;;4880191;29;20220;-88
2023/01/12 11:32:00;;;;;;;1.45;0.70;;;22.90;68.80;;;;;;4882832;29;20207;-90
2023/01/12 11:34:32;;;;;;;1.87;0.80;;;23.00;68.80;;;;;;4883448;29;20234;-88
2023/01/12 11:37:06;;;;;;;2.20;0.73;;;23.10;68.80;;;;;;4884465;29;20479;-88
2023/01/12 11:39:35;;;;;;;1.00;0.70;;;23.10;68.60;;;;;;4879448;29;20210;-88
2023/01/12 11:45:01;;;;;;;2.03;0.70;;;23.20;68.70;;;;;;4880546;29;20219;-83
2023/01/12 11:47:32;;;;;;;1.10;0.83;;;23.20;68.50;;;;;;4880948;29;20208;-82
2023/01/12 11:50:06;;;;;;;0.90;0.70;;;23.30;68.70;;;;;;4882256;29;20502;-84
2023/01/12 11:52:33;;;;;;;0.80;0.60;;;23.30;68.60;;;;;;4882541;29;20473;-80
2023/01/12 11:55:01;;;;;;;1.30;0.80;;;23.30;68.40;;;;;;4881266;29;20235;-79
2023/01/12 11:57:45;;;;;;;2.70;0.77;;;23.20;68.70;;;;;;4883740;29;20661;-80
2023/01/12 12:00:28;;;;;;;0.80;0.60;;;23.20;68.90;;;;;;4881795;29;20579;-82
2023/01/12 12:03:06;;;;;;;0.90;0.70;;;23.20;69.00;;;;;;4883275;29;20597;-81
2023/01/12 12:05:42;;;;;;;1.58;1.20;;;23.20;66.70;;;;;;4882756;29;20463;-79
2023/01/12 12:08:19;;;;;;;2.00;1.10;;;23.20;65.40;;;;;;4880468;29;20219;-80
2023/01/12 12:10:54;;;;;;;2.85;1.15;;;23.20;65.30;;;;;;4885868;29;20203;-81
2023/01/12 12:13:30;;;;;;;2.20;1.02;;;23.20;65.90;;;;;;4882214;29;20233;-86
2023/01/12 12:16:16;;;;;;;2.08;1.13;;;22.90;66.60;;;;;;4872118;29;20207;-85
2023/01/12 12:19:06;;;;;;;3.05;0.90;;;22.80;67.30;;;;;;4872978;29;20213;-87
2023/01/12 12:21:47;;;;;;;1.35;0.82;;;22.90;67.70;;;;;;4883265;29;20219;-83
2023/01/12 12:24:37;;;;;;;1.80;1.10;;;23.00;67.80;;;;;;4881253;29;20281;-81
2023/01/12 12:27:12;;;;;;;1.63;1.07;;;23.00;67.00;;;;;;4883250;29;20207;-89
2023/01/12 12:29:55;;;;;;;1.00;0.80;;;22.90;67.70;;;;;;4881269;29;20475;-89
2023/01/12 12:32:29;;;;;;;1.25;0.70;;;23.00;67.80;;;;;;4885732;29;20206;-90
2023/01/12 12:35:13;;;;;;;1.88;1.00;;;23.10;67.90;;;;;;4887906;29;20232;-89
2023/01/12 12:37:52;;;;;;;3.53;2.90;;;23.10;67.90;;;;;;4886534;29;20216;-89
2023/01/12 12:45:15;;;;;;;1.93;1.00;;;23.10;67.90;;;;;;4882138;29;20468;-88
2023/01/12 12:46:21;;;;;;;3.38;0.90;;;23.20;67.90;;;;;;4882481;29;20556;-91
2023/01/12 12:48:58;;;;;;;1.47;0.80;;;23.20;67.90;;;;;;4882199;29;20809;-91
2023/01/12 12:51:26;;;;;;;1.63;0.90;;;23.20;67.90;;;;;;4889356;29;20485;-87
2023/01/12 12:53:54;;;;;;;1.70;0.83;;;23.30;67.80;;;;;;4878872;29;20519;-87
2023/01/12 12:56:24;;;;;;;1.20;1.00;;;23.40;67.70;;;;;;4875660;29;20497;-89
2023/01/12 12:58:52;;;;;;;1.10;0.90;;;23.40;67.60;;;;;;4880460;29;20475;-89
2023/01/12 13:01:57;;;;;;;2.70;0.90;;;23.30;67.70;;;;;;4880279;29;20469;-86
2023/01/12 13:04:59;;;;;;;2.00;0.80;;;23.30;67.80;;;;;;4879639;29;20470;-88
2023/01/12 13:07:26;;;;;;;3.30;0.93;;;23.30;67.80;;;;;;4882007;29;20472;-86
2023/01/12 13:10:09;;;;;;;1.90;1.03;;;23.30;68.00;;;;;;4884608;29;20471;-91
2023/01/12 13:16:41;;;;;;;2.10;1.17;;;23.30;68.20;;;;;;4874279;29;20485;-89
2023/01/12 13:19:14;;;;;;;1.60;0.80;;;23.30;68.20;;;;;;4881847;29;20557;-87
2023/01/12 13:21:57;;;;;;;2.10;0.87;;;23.30;68.30;;;;;;4881303;29;20476;-87
2023/01/12 13:24:37;;;;;;;1.10;0.90;;;23.30;68.40;;;;;;4881373;29;22280;-88
2023/01/12 13:27:50;;;;;;;1.20;0.90;;;23.30;68.40;;;;;;4879640;29;20462;-86
2023/01/12 13:30:39;;;;;;;0.90;0.80;;;23.30;68.40;;;;;;4881101;29;20478;-87
2023/01/12 13:33:20;;;;;;;2.37;0.80;;;23.30;68.30;;;;;;4880391;29;20969;-89
2023/01/12 13:36:08;;;;;;;1.27;0.90;;;23.30;68.40;;;;;;4878923;29;20809;-78
2023/01/12 13:38:43;;;;;;;1.27;0.70;;;23.30;68.30;;;;;;4879690;29;20494;-79
2023/01/12 13:44:01;;;;;;;1.80;0.87;;;22.40;70.10;;;;;;4874985;29;21015;-76
2023/01/12 13:46:32;;;;;;;1.60;1.00;;;22.20;70.70;;;;;;4881512;29;20470;-76
2023/01/12 13:48:59;;;;;;;1.57;0.90;;;22.10;71.20;;;;;;4879708;29;20243;-75
2023/01/12 13:51:33;;;;;;;3.40;0.90;;;22.00;71.80;;;;;;4881440;29;21069;-76
2023/01/12 13:54:03;;;;;;;1.40;0.90;;;22.10;72.00;;;;;;4881282;29;20479;-76
2023/01/12 13:56:30;;;;;;;1.00;0.80;;;22.10;71.80;;;;;;4882725;29;20467;-76